Time;durP1;ratioP1;P1;durP2;ratioP2;P2;SDS_P1;SDS_P2;PMS_P1;PMS_P2;Temp;Humidity;BMP_temperature;BMP_pressure;BME280_temperature;BME280_humidity;BME280_pressure;Samples;Min_cycle;Max_cycle;Signal;HPM_P1;HPM_P2
2021/11/14 00:00:40;;;;;;;4.85;4.55;;;8.50;99.90;;;;;;5012619;28;20226;-91
2021/11/14 00:03:07;;;;;;;4.57;4.28;;;8.50;99.90;;;;;;5017446;28;20230;-92
2021/11/14 00:05:35;;;;;;;4.85;4.55;;;8.50;99.90;;;;;;5015274;28;20220;-92
2021/11/14 00:08:02;;;;;;;5.15;4.75;;;8.50;99.90;;;;;;5020924;28;20228;-91
2021/11/14 00:10:30;;;;;;;5.05;4.70;;;8.40;99.90;;;;;;5019297;28;20235;-91
2021/11/14 00:12:59;;;;;;;4.75;4.45;;;8.50;99.90;;;;;;5022491;28;20237;-90
2021/11/14 00:15:26;;;;;;;4.60;4.30;;;8.40;99.90;;;;;;5015936;28;20232;-91
2021/11/14 00:17:54;;;;;;;4.50;4.20;;;8.50;99.90;;;;;;5013672;28;20228;-91
2021/11/14 00:20:22;;;;;;;4.80;4.50;;;8.50;99.90;;;;;;5011779;28;20309;-92
2021/11/14 00:22:49;;;;;;;4.82;4.53;;;8.50;99.90;;;;;;5023141;28;20232;-91
2021/11/14 00:25:18;;;;;;;4.55;4.25;;;8.50;99.90;;;;;;5021034;28;20568;-92
2021/11/14 00:27:46;;;;;;;4.15;3.85;;;8.50;99.90;;;;;;5012929;28;20274;-92
2021/11/14 00:30:15;;;;;;;4.57;4.28;;;8.50;99.90;;;;;;5012743;28;20224;-92
2021/11/14 00:32:42;;;;;;;5.32;4.93;;;8.60;99.90;;;;;;5014996;28;20238;-91
2021/11/14 00:35:12;;;;;;;5.18;4.78;;;8.50;99.90;;;;;;5019693;28;20231;-90
2021/11/14 00:37:39;;;;;;;5.25;4.85;;;8.60;99.90;;;;;;5014819;28;20710;-91
2021/11/14 00:40:10;;;;;;;4.85;4.45;;;8.50;99.90;;;;;;5016797;28;20219;-91
2021/11/14 00:42:38;;;;;;;5.20;4.75;;;8.50;99.90;;;;;;5013574;28;20220;-90
2021/11/14 00:45:06;;;;;;;5.18;4.78;;;8.50;99.90;;;;;;5014112;28;20234;-91
2021/11/14 00:47:35;;;;;;;5.28;4.78;;;8.50;99.90;;;;;;5035067;28;20302;-89
2021/11/14 00:50:07;;;;;;;5.53;5.13;;;8.50;99.90;;;;;;5037405;28;20674;-92
2021/11/14 00:52:34;;;;;;;5.70;5.18;;;8.40;99.90;;;;;;5032276;28;20242;-92
2021/11/14 00:55:02;;;;;;;5.60;5.10;;;8.40;99.90;;;;;;5037737;28;20715;-91
2021/11/14 00:57:29;;;;;;;5.55;5.13;;;8.30;99.90;;;;;;5032266;28;20696;-91
2021/11/14 00:59:56;;;;;;;12.50;6.60;;;8.30;99.90;;;;;;5036645;28;20217;-92
2021/11/14 01:02:23;;;;;;;5.90;5.30;;;8.30;99.90;;;;;;5031177;28;20231;-92
2021/11/14 01:04:52;;;;;;;6.53;5.88;;;8.30;99.90;;;;;;5031658;28;20224;-91
2021/11/14 01:07:19;;;;;;;6.10;5.60;;;8.30;99.90;;;;;;5034125;28;20222;-91
2021/11/14 01:09:47;;;;;;;6.38;5.78;;;8.30;99.90;;;;;;5030127;28;20231;-90
2021/11/14 01:12:14;;;;;;;5.80;5.30;;;8.30;99.90;;;;;;5028682;28;20215;-93
2021/11/14 01:14:41;;;;;;;6.43;5.82;;;8.30;99.90;;;;;;5032811;28;20594;-92
2021/11/14 01:17:08;;;;;;;7.20;6.13;;;8.30;99.90;;;;;;5034677;28;20226;-90
2021/11/14 01:19:36;;;;;;;6.60;6.00;;;8.30;99.90;;;;;;5019455;28;20224;-91
2021/11/14 01:22:05;;;;;;;6.47;5.93;;;8.30;99.90;;;;;;5005926;28;20217;-92
2021/11/14 01:24:32;;;;;;;6.80;6.30;;;8.30;99.90;;;;;;5010913;28;20246;-92
2021/11/14 01:27:00;;;;;;;5.55;5.15;;;8.30;99.90;;;;;;5012754;28;20690;-92
2021/11/14 01:29:27;;;;;;;5.82;5.32;;;8.30;99.90;;;;;;5012322;28;20220;-92
2021/11/14 01:31:54;;;;;;;5.38;4.97;;;8.30;99.90;;;;;;5014350;28;20227;-92
2021/11/14 01:34:21;;;;;;;6.25;5.75;;;8.30;99.90;;;;;;5016202;28;20250;-92
2021/11/14 01:36:49;;;;;;;5.65;5.15;;;8.30;99.90;;;;;;5017362;28;20228;-91
2021/11/14 01:39:17;;;;;;;5.70;5.20;;;8.40;99.90;;;;;;5012445;28;20242;-93
2021/11/14 01:41:45;;;;;;;5.88;5.38;;;8.40;99.90;;;;;;5014601;28;20220;-92
2021/11/14 01:44:13;;;;;;;5.57;5.15;;;8.40;99.90;;;;;;5010880;28;20686;-90
2021/11/14 01:46:42;;;;;;;5.93;5.43;;;8.50;99.90;;;;;;5012893;28;20307;-91
2021/11/14 01:49:10;;;;;;;6.15;5.65;;;8.50;99.90;;;;;;5010282;28;20343;-90
2021/11/14 01:51:37;;;;;;;5.78;5.28;;;8.50;99.90;;;;;;5009383;28;20694;-92
2021/11/14 01:54:05;;;;;;;6.07;5.15;;;8.50;99.90;;;;;;5016827;28;20232;-92
2021/11/14 01:56:34;;;;;;;5.88;5.38;;;8.40;99.90;;;;;;5030321;28;20224;-92
2021/11/14 01:59:01;;;;;;;5.32;4.93;;;8.40;99.90;;;;;;5037115;28;20214;-92
2021/11/14 02:01:32;;;;;;;5.32;4.82;;;8.40;99.90;;;;;;5031728;28;20223;-93
2021/11/14 02:04:05;;;;;;;5.72;5.25;;;8.40;99.90;;;;;;5028233;28;20227;-91
2021/11/14 02:06:34;;;;;;;5.65;5.15;;;8.50;99.90;;;;;;5030771;28;20239;-92
2021/11/14 02:09:03;;;;;;;4.90;4.50;;;8.50;99.90;;;;;;5028474;28;20226;-92
2021/11/14 02:11:31;;;;;;;5.47;4.97;;;8.50;99.90;;;;;;5030721;28;20719;-92
2021/11/14 02:14:00;;;;;;;5.20;4.80;;;8.50;99.90;;;;;;5032187;28;20224;-92
2021/11/14 02:16:30;;;;;;;6.03;5.45;;;8.50;99.90;;;;;;5033711;28;20235;-92
2021/11/14 02:18:57;;;;;;;5.22;4.82;;;8.50;99.90;;;;;;5030466;28;20221;-92
2021/11/14 02:21:26;;;;;;;4.88;4.50;;;8.50;99.90;;;;;;5024555;28;20219;-92
2021/11/14 02:23:53;;;;;;;5.80;5.22;;;8.50;99.90;;;;;;5030207;28;20234;-90
2021/11/14 02:26:23;;;;;;;5.10;4.70;;;8.50;99.90;;;;;;5030837;28;20231;-91
2021/11/14 02:28:51;;;;;;;4.95;4.55;;;8.50;99.90;;;;;;5026753;28;20222;-81
2021/11/14 02:31:19;;;;;;;4.88;4.47;;;8.50;99.90;;;;;;5022830;28;20223;-81
2021/11/14 02:33:47;;;;;;;5.63;5.22;;;8.60;99.90;;;;;;5024422;28;20218;-80
2021/11/14 02:36:14;;;;;;;4.15;3.85;;;8.50;99.90;;;;;;5028062;28;20231;-80
2021/11/14 02:38:44;;;;;;;5.88;5.38;;;8.50;99.90;;;;;;5024007;28;20693;-79
2021/11/14 02:41:12;;;;;;;6.18;5.57;;;8.50;99.90;;;;;;5019590;28;20235;-80
2021/11/14 02:43:41;;;;;;;5.40;5.00;;;8.40;99.90;;;;;;5023992;28;20250;-79
2021/11/14 02:46:08;;;;;;;5.72;5.07;;;8.30;99.90;;;;;;5024971;28;20233;-79
2021/11/14 02:48:35;;;;;;;6.72;6.07;;;8.40;99.90;;;;;;5023839;28;20230;-80
2021/11/14 02:51:07;;;;;;;6.25;5.65;;;8.30;99.90;;;;;;5023080;28;20219;-81
2021/11/14 02:53:34;;;;;;;6.32;5.82;;;8.30;99.90;;;;;;5026339;28;20242;-82
2021/11/14 02:56:03;;;;;;;5.47;4.97;;;8.30;99.90;;;;;;5019493;28;20224;-80
2021/11/14 02:58:31;;;;;;;6.05;5.55;;;8.40;99.90;;;;;;5023112;28;20233;-80
2021/11/14 03:01:03;;;;;;;6.22;5.72;;;8.40;99.90;;;;;;5021371;28;20246;-82
2021/11/14 03:03:31;;;;;;;5.57;5.15;;;8.40;99.90;;;;;;5022028;28;20277;-80
2021/11/14 03:05:59;;;;;;;6.38;5.50;;;8.40;99.90;;;;;;5027473;28;20233;-80
2021/11/14 03:08:27;;;;;;;5.35;4.95;;;8.40;99.90;;;;;;5024471;28;20231;-80
2021/11/14 03:10:54;;;;;;;5.20;4.80;;;8.40;99.90;;;;;;5018161;28;20220;-80
2021/11/14 03:13:24;;;;;;;5.20;4.80;;;8.40;99.90;;;;;;5022719;28;20235;-81
2021/11/14 03:15:54;;;;;;;4.50;4.10;;;8.40;99.90;;;;;;5022335;28;20697;-81
2021/11/14 03:18:21;;;;;;;5.72;5.22;;;8.40;99.90;;;;;;5017820;28;20223;-80
2021/11/14 03:20:51;;;;;;;11.80;4.97;;;8.40;99.90;;;;;;5021192;28;20230;-80
2021/11/14 03:23:19;;;;;;;4.55;4.22;;;8.40;99.90;;;;;;5021286;28;20752;-81
2021/11/14 03:25:46;;;;;;;4.88;4.47;;;8.40;99.90;;;;;;5022057;28;20231;-79
2021/11/14 03:28:14;;;;;;;4.40;4.00;;;8.40;99.90;;;;;;5021637;28;20238;-80
2021/11/14 03:30:43;;;;;;;4.82;4.43;;;8.40;99.90;;;;;;5023281;28;20595;-81
2021/11/14 03:33:12;;;;;;;4.60;4.25;;;8.40;99.90;;;;;;5013261;28;20219;-78
2021/11/14 03:35:43;;;;;;;3.92;3.63;;;8.40;99.90;;;;;;5021496;28;20238;-80
2021/11/14 03:38:11;;;;;;;4.07;3.70;;;8.40;99.90;;;;;;5022350;28;20228;-80
2021/11/14 03:40:39;;;;;;;4.57;4.28;;;8.40;99.90;;;;;;5022611;28;20215;-80
2021/11/14 03:43:06;;;;;;;4.63;4.32;;;8.50;99.90;;;;;;5028038;28;20234;-80
2021/11/14 03:45:34;;;;;;;4.82;4.45;;;8.40;99.90;;;;;;5028425;28;20226;-80
2021/11/14 03:48:02;;;;;;;5.35;4.95;;;8.40;99.90;;;;;;5030118;28;20223;-80
2021/11/14 03:50:30;;;;;;;5.22;4.82;;;8.40;99.90;;;;;;5026693;28;20226;-81
2021/11/14 03:52:58;;;;;;;5.30;4.90;;;8.40;99.90;;;;;;5028154;28;20236;-81
2021/11/14 03:55:26;;;;;;;5.95;5.45;;;8.40;99.90;;;;;;5026294;28;20223;-82
2021/11/14 03:57:53;;;;;;;4.68;4.28;;;8.40;99.90;;;;;;5026679;28;20223;-80
2021/11/14 04:00:25;;;;;;;4.97;4.57;;;8.40;99.90;;;;;;5026248;28;20230;-80
2021/11/14 04:02:53;;;;;;;4.50;4.10;;;8.50;99.90;;;;;;5024589;28;20227;-80
2021/11/14 04:05:22;;;;;;;4.95;4.55;;;8.50;99.90;;;;;;5024237;28;20237;-80
2021/11/14 04:07:49;;;;;;;5.00;4.60;;;8.40;99.90;;;;;;5027620;28;20242;-81
2021/11/14 04:10:17;;;;;;;5.32;4.93;;;8.40;99.90;;;;;;5025968;28;20230;-82
2021/11/14 04:12:45;;;;;;;6.03;5.38;;;8.40;99.90;;;;;;5026426;28;20265;-80
2021/11/14 04:15:14;;;;;;;6.75;6.15;;;8.40;99.90;;;;;;5027066;28;20231;-81
2021/11/14 04:17:42;;;;;;;6.32;5.82;;;8.40;99.90;;;;;;5025663;28;20227;-81
2021/11/14 04:20:12;;;;;;;7.03;6.43;;;8.40;99.90;;;;;;5023981;28;20346;-79
2021/11/14 04:22:41;;;;;;;5.97;5.47;;;8.30;99.90;;;;;;5025675;28;20227;-80
2021/11/14 04:25:10;;;;;;;6.82;5.93;;;8.40;99.90;;;;;;5026223;28;20227;-80
2021/11/14 04:27:37;;;;;;;6.43;5.85;;;8.30;99.90;;;;;;5027652;28;20232;-81
2021/11/14 04:30:07;;;;;;;6.90;6.25;;;8.30;99.90;;;;;;5027051;28;20224;-80
2021/11/14 04:32:34;;;;;;;6.57;5.97;;;8.30;99.90;;;;;;5027301;28;20712;-82
2021/11/14 04:35:01;;;;;;;6.32;5.82;;;8.30;99.90;;;;;;5026797;28;20219;-80
2021/11/14 04:37:29;;;;;;;6.53;5.82;;;8.40;99.90;;;;;;5029712;28;20240;-80
2021/11/14 04:39:57;;;;;;;6.32;5.82;;;8.30;99.90;;;;;;5023490;28;20601;-83
2021/11/14 04:42:24;;;;;;;6.43;5.82;;;8.40;99.90;;;;;;5025426;28;20235;-85
2021/11/14 04:44:51;;;;;;;6.70;6.05;;;8.40;99.90;;;;;;5025091;28;20239;-80
2021/11/14 04:47:19;;;;;;;6.75;6.15;;;8.30;99.90;;;;;;5026591;28;20234;-80
2021/11/14 04:49:46;;;;;;;7.40;6.70;;;8.30;99.90;;;;;;5022009;28;20966;-80
2021/11/14 04:52:13;;;;;;;7.43;6.72;;;8.20;99.90;;;;;;5024596;28;20223;-81
2021/11/14 04:54:40;;;;;;;7.13;6.53;;;8.20;99.90;;;;;;5024680;28;20231;-80
2021/11/14 04:57:09;;;;;;;6.63;6.03;;;8.20;99.90;;;;;;5024889;28;20266;-80
2021/11/14 04:59:36;;;;;;;6.20;5.70;;;8.10;99.90;;;;;;5023665;28;20226;-80
2021/11/14 05:02:04;;;;;;;6.70;6.10;;;8.10;99.90;;;;;;5013629;28;20227;-80
2021/11/14 05:04:31;;;;;;;6.72;6.13;;;8.10;99.90;;;;;;5028866;28;20228;-81
2021/11/14 05:06:58;;;;;;;6.90;6.30;;;8.10;99.90;;;;;;5026615;28;20227;-79
2021/11/14 05:09:25;;;;;;;7.18;6.47;;;8.20;99.90;;;;;;5023533;28;20219;-81
2021/11/14 05:11:52;;;;;;;6.47;5.85;;;8.20;99.90;;;;;;5025734;28;20227;-81
2021/11/14 05:14:21;;;;;;;6.50;5.95;;;8.20;99.90;;;;;;4997616;28;20220;-80
2021/11/14 05:16:49;;;;;;;7.10;6.45;;;8.20;99.90;;;;;;5027127;28;20219;-82
2021/11/14 05:19:16;;;;;;;6.93;6.25;;;8.10;99.90;;;;;;5020690;28;20216;-80
2021/11/14 05:21:43;;;;;;;6.50;5.90;;;8.10;99.90;;;;;;5025578;28;20231;-82
2021/11/14 05:24:10;;;;;;;6.60;6.03;;;8.10;99.90;;;;;;5024121;28;20219;-80
2021/11/14 05:26:37;;;;;;;5.80;5.30;;;8.10;99.90;;;;;;5025447;28;20227;-82
2021/11/14 05:29:05;;;;;;;6.28;5.75;;;8.10;99.90;;;;;;5030323;28;20219;-82
2021/11/14 05:31:34;;;;;;;5.97;5.53;;;8.10;99.90;;;;;;5023083;28;20223;-83
2021/11/14 05:34:01;;;;;;;6.60;6.00;;;8.20;99.90;;;;;;5027073;28;20230;-81
2021/11/14 05:36:28;;;;;;;5.53;5.03;;;8.10;99.90;;;;;;5023974;28;20231;-80
2021/11/14 05:38:56;;;;;;;6.53;5.55;;;8.20;99.90;;;;;;5023273;28;20223;-80
2021/11/14 05:41:23;;;;;;;6.05;5.63;;;8.10;99.90;;;;;;5024093;28;20227;-79
2021/11/14 05:43:50;;;;;;;5.78;5.38;;;8.20;99.90;;;;;;5023162;28;20685;-80
2021/11/14 05:46:17;;;;;;;5.70;5.15;;;8.20;99.90;;;;;;5027939;28;20588;-82
2021/11/14 05:48:46;;;;;;;5.53;5.03;;;8.20;99.90;;;;;;5022229;28;20234;-81
2021/11/14 05:51:13;;;;;;;5.28;4.88;;;8.30;99.90;;;;;;5024148;28;20709;-81
2021/11/14 05:53:40;;;;;;;5.35;4.95;;;8.30;99.90;;;;;;5022391;28;20242;-81
2021/11/14 05:56:07;;;;;;;5.47;4.97;;;8.30;99.90;;;;;;5025234;28;20230;-79
2021/11/14 05:58:41;;;;;;;5.78;5.30;;;8.30;99.90;;;;;;5024993;28;20242;-79
2021/11/14 06:01:13;;;;;;;5.40;4.90;;;8.30;99.90;;;;;;5026819;28;20219;-81
2021/11/14 06:03:43;;;;;;;5.00;4.60;;;8.30;99.90;;;;;;5018619;28;20306;-81
2021/11/14 06:06:12;;;;;;;4.93;4.53;;;8.30;99.90;;;;;;5022719;28;20235;-80
2021/11/14 06:08:39;;;;;;;4.75;4.35;;;8.30;99.90;;;;;;5025216;28;20230;-80
2021/11/14 06:11:06;;;;;;;4.18;3.88;;;8.30;99.90;;;;;;5024166;28;20705;-80
2021/11/14 06:13:33;;;;;;;4.60;4.20;;;8.40;99.90;;;;;;5023966;28;20677;-81
2021/11/14 06:16:01;;;;;;;4.68;4.28;;;8.40;99.90;;;;;;4997923;28;20221;-80
2021/11/14 06:18:28;;;;;;;4.57;4.28;;;8.40;99.90;;;;;;5024581;28;20219;-80
2021/11/14 06:20:56;;;;;;;4.68;4.38;;;8.40;99.90;;;;;;4999120;28;20736;-80
2021/11/14 06:23:26;;;;;;;4.75;4.45;;;8.40;99.90;;;;;;5030250;28;20226;-81
2021/11/14 06:25:53;;;;;;;4.45;4.15;;;8.40;99.90;;;;;;5020600;28;20227;-80
2021/11/14 06:28:20;;;;;;;4.60;4.30;;;8.40;99.90;;;;;;5011547;28;20214;-82
2021/11/14 06:30:47;;;;;;;5.28;4.88;;;8.30;99.90;;;;;;5024954;28;20604;-81
2021/11/14 06:33:14;;;;;;;4.97;4.57;;;8.30;99.90;;;;;;5023118;28;20246;-80
2021/11/14 06:35:42;;;;;;;4.88;4.47;;;8.30;99.90;;;;;;5024940;28;20226;-82
2021/11/14 06:38:09;;;;;;;4.90;4.60;;;8.30;99.90;;;;;;5021900;28;20229;-80
2021/11/14 06:40:38;;;;;;;4.72;4.43;;;8.30;99.90;;;;;;5023973;28;20223;-80
2021/11/14 06:43:05;;;;;;;3.95;3.65;;;8.40;99.90;;;;;;5024191;28;20219;-80
2021/11/14 06:45:32;;;;;;;4.22;3.92;;;8.40;99.90;;;;;;5017656;28;20226;-81
2021/11/14 06:48:00;;;;;;;4.13;3.72;;;8.40;99.90;;;;;;5022790;28;20591;-81
2021/11/14 06:50:27;;;;;;;4.20;3.90;;;8.40;99.90;;;;;;5024527;28;20231;-80
2021/11/14 06:52:54;;;;;;;3.72;3.53;;;8.40;99.90;;;;;;5023239;28;20223;-80
2021/11/14 06:55:22;;;;;;;3.22;3.03;;;8.50;99.90;;;;;;5021291;28;20234;-82
2021/11/14 06:57:50;;;;;;;3.35;3.15;;;8.50;99.90;;;;;;5021787;28;20227;-80
2021/11/14 07:00:20;;;;;;;3.05;2.85;;;8.50;99.90;;;;;;5023268;28;20226;-80
2021/11/14 07:02:47;;;;;;;3.67;3.47;;;8.50;99.90;;;;;;5022773;28;20596;-80
2021/11/14 07:05:14;;;;;;;4.72;4.43;;;8.50;99.90;;;;;;5022194;28;20232;-81
2021/11/14 07:07:42;;;;;;;4.85;4.45;;;8.50;99.90;;;;;;5022074;28;20223;-79
2021/11/14 07:10:12;;;;;;;4.72;4.32;;;8.50;99.90;;;;;;5021169;28;20215;-80
2021/11/14 07:12:40;;;;;;;4.45;4.15;;;8.50;99.90;;;;;;5021588;28;20219;-80
2021/11/14 07:15:11;;;;;;;4.55;4.25;;;8.50;99.90;;;;;;4996856;28;20233;-80
2021/11/14 07:17:39;;;;;;;4.22;3.92;;;8.50;99.90;;;;;;5022366;28;20219;-80
2021/11/14 07:20:09;;;;;;;4.60;4.20;;;8.50;99.90;;;;;;5023178;28;20233;-80
2021/11/14 07:22:36;;;;;;;4.40;4.00;;;8.50;99.90;;;;;;5023525;28;20223;-80
2021/11/14 07:25:04;;;;;;;5.25;4.78;;;8.50;99.90;;;;;;5024377;28;20215;-80
2021/11/14 07:27:31;;;;;;;4.80;4.40;;;8.50;99.90;;;;;;4998858;28;20238;-80
2021/11/14 07:29:58;;;;;;;4.90;4.50;;;8.50;99.90;;;;;;5020671;28;20234;-79
2021/11/14 07:32:27;;;;;;;5.20;4.80;;;8.40;99.90;;;;;;5021214;28;20230;-79
2021/11/14 07:34:54;;;;;;;4.13;3.83;;;8.40;99.90;;;;;;5020491;28;20222;-80
2021/11/14 07:37:22;;;;;;;5.18;4.80;;;8.40;99.90;;;;;;5021921;28;20219;-81
2021/11/14 07:39:49;;;;;;;5.13;4.72;;;8.40;99.90;;;;;;5022269;28;20224;-79
2021/11/14 07:42:16;;;;;;;4.30;4.00;;;8.50;99.90;;;;;;5020765;28;20729;-80
2021/11/14 07:44:43;;;;;;;4.45;4.15;;;8.50;99.90;;;;;;4972046;28;20238;-90
2021/11/14 07:47:11;;;;;;;3.80;3.55;;;8.50;99.90;;;;;;5037112;28;20231;-79
2021/11/14 07:49:39;;;;;;;3.60;3.40;;;8.50;99.90;;;;;;5018024;28;20224;-84
2021/11/14 07:52:07;;;;;;;3.80;3.60;;;8.50;99.90;;;;;;5040895;28;20727;-87
2021/11/14 07:54:34;;;;;;;4.00;3.70;;;8.40;99.90;;;;;;5024243;28;20223;-84
2021/11/14 07:57:01;;;;;;;4.03;3.72;;;8.40;99.90;;;;;;5019051;28;20219;-81
2021/11/14 07:59:28;;;;;;;4.30;4.00;;;8.40;99.90;;;;;;5019742;28;20764;-80
2021/11/14 08:01:55;;;;;;;3.88;3.67;;;8.40;99.90;;;;;;5015928;28;20215;-82
2021/11/14 08:04:23;;;;;;;4.30;4.00;;;8.40;99.90;;;;;;5012996;28;20218;-80
2021/11/14 08:06:52;;;;;;;4.10;3.70;;;8.50;99.90;;;;;;5021871;28;20834;-80
2021/11/14 08:09:19;;;;;;;5.85;5.35;;;8.60;99.90;;;;;;5019381;28;20227;-79
2021/11/14 08:11:46;;;;;;;6.32;5.82;;;8.50;99.90;;;;;;5017135;28;20630;-79
2021/11/14 08:14:14;;;;;;;4.95;4.65;;;8.50;99.90;;;;;;4990045;28;20228;-80
2021/11/14 08:16:41;;;;;;;6.28;5.63;;;8.40;99.90;;;;;;5019864;28;20306;-89
2021/11/14 08:19:08;;;;;;;4.75;4.35;;;8.40;99.90;;;;;;5014244;28;20227;-81
2021/11/14 08:21:35;;;;;;;4.75;4.43;;;8.40;99.90;;;;;;5014109;28;20223;-79
2021/11/14 08:24:04;;;;;;;4.50;4.20;;;8.40;99.90;;;;;;5021190;28;20219;-79
2021/11/14 08:26:31;;;;;;;4.85;4.50;;;8.40;99.90;;;;;;5020573;28;20231;-79
2021/11/14 08:28:58;;;;;;;5.05;4.75;;;8.50;99.90;;;;;;5022873;28;20686;-79
2021/11/14 08:31:26;;;;;;;5.93;5.43;;;8.60;99.90;;;;;;5025598;28;20564;-79
2021/11/14 08:33:53;;;;;;;5.05;4.65;;;8.60;99.90;;;;;;5025323;28;20697;-79
2021/11/14 08:36:21;;;;;;;4.43;4.13;;;8.60;99.90;;;;;;5021486;28;20632;-79
2021/11/14 08:38:48;;;;;;;4.75;4.35;;;8.70;99.90;;;;;;5024231;28;20222;-79
2021/11/14 08:41:17;;;;;;;4.40;4.10;;;8.60;99.90;;;;;;5021137;28;20220;-79
2021/11/14 08:43:44;;;;;;;5.07;4.68;;;8.70;99.90;;;;;;5023096;28;20227;-82
2021/11/14 08:46:12;;;;;;;4.57;4.28;;;8.70;99.90;;;;;;5006064;28;20239;-79
2021/11/14 08:48:39;;;;;;;6.13;4.72;;;8.70;99.90;;;;;;5024180;28;20246;-82
2021/11/14 08:51:06;;;;;;;4.57;4.22;;;8.60;99.90;;;;;;5024983;28;20223;-79
2021/11/14 08:53:34;;;;;;;4.90;4.60;;;8.60;99.90;;;;;;5026885;28;20231;-79
2021/11/14 08:56:02;;;;;;;6.75;5.28;;;8.60;99.90;;;;;;5002036;28;20231;-80
2021/11/14 08:58:31;;;;;;;5.35;4.97;;;8.60;99.90;;;;;;5028077;28;20222;-79
2021/11/14 09:00:58;;;;;;;5.13;4.72;;;8.50;99.90;;;;;;5027298;28;20223;-85
2021/11/14 09:03:25;;;;;;;5.30;4.80;;;8.50;99.90;;;;;;5025787;28;20219;-81
2021/11/14 09:05:53;;;;;;;6.03;5.63;;;8.80;99.90;;;;;;5024687;28;20220;-81
2021/11/14 09:08:20;;;;;;;6.28;5.78;;;9.30;99.90;;;;;;5026693;28;20215;-80
2021/11/14 09:10:47;;;;;;;5.68;5.25;;;9.60;99.90;;;;;;5027620;28;20219;-82
2021/11/14 09:13:15;;;;;;;6.38;5.88;;;9.80;99.90;;;;;;5031191;28;20234;-81
2021/11/14 09:15:44;;;;;;;6.22;5.72;;;10.10;99.90;;;;;;5031588;28;20257;-80
2021/11/14 09:18:11;;;;;;;6.57;6.07;;;10.20;99.90;;;;;;5033220;28;20658;-82
2021/11/14 09:20:39;;;;;;;6.07;5.57;;;10.40;99.90;;;;;;5032785;28;20227;-81
2021/11/14 09:23:06;;;;;;;6.38;5.88;;;10.50;99.90;;;;;;5038036;28;20227;-81
2021/11/14 09:25:39;;;;;;;5.75;5.35;;;10.60;99.90;;;;;;5032438;28;20219;-84
2021/11/14 09:28:06;;;;;;;5.97;5.47;;;10.70;99.90;;;;;;5031060;28;20366;-80
2021/11/14 09:30:34;;;;;;;6.22;5.72;;;10.80;99.90;;;;;;5027162;28;20591;-80
2021/11/14 09:33:03;;;;;;;5.68;5.20;;;10.60;99.90;;;;;;5027190;28;20311;-79
2021/11/14 09:35:30;;;;;;;5.15;4.75;;;10.30;99.90;;;;;;5005806;28;20811;-84
2021/11/14 09:37:57;;;;;;;5.50;5.10;;;10.10;99.90;;;;;;5041079;28;21521;-82
2021/11/14 09:40:24;;;;;;;6.15;5.65;;;9.90;99.90;;;;;;5036883;28;20233;-80
2021/11/14 09:42:51;;;;;;;5.57;5.07;;;9.70;99.90;;;;;;5034589;28;20223;-84
2021/11/14 09:45:19;;;;;;;5.55;5.15;;;9.60;99.90;;;;;;5038279;28;20234;-88
2021/11/14 09:47:46;;;;;;;5.45;5.05;;;9.60;99.90;;;;;;5038067;28;20227;-84
2021/11/14 09:50:15;;;;;;;6.57;5.97;;;9.50;99.90;;;;;;5035240;28;20242;-83
2021/11/14 09:52:42;;;;;;;7.20;6.60;;;9.50;99.90;;;;;;5040523;28;20222;-84
2021/11/14 09:55:12;;;;;;;6.55;6.00;;;9.50;99.90;;;;;;5034265;28;20226;-87
2021/11/14 09:57:40;;;;;;;6.57;5.90;;;9.50;99.90;;;;;;5034673;28;20231;-83
2021/11/14 10:00:11;;;;;;;7.28;6.68;;;9.50;99.90;;;;;;5040793;28;20223;-83
2021/11/14 10:02:38;;;;;;;6.28;5.78;;;9.50;99.90;;;;;;5029378;28;20225;-84
2021/11/14 10:05:08;;;;;;;8.93;6.45;;;9.40;99.90;;;;;;5014802;28;20228;-85
2021/11/14 10:07:38;;;;;;;23.05;7.97;;;9.30;99.90;;;;;;5027910;28;20615;-83
2021/11/14 10:10:11;;;;;;;8.13;7.32;;;9.30;99.90;;;;;;5031306;28;20349;-84
2021/11/14 10:12:38;;;;;;;7.53;6.90;;;9.20;99.90;;;;;;5010693;28;20224;-86
2021/11/14 10:15:09;;;;;;;7.45;6.68;;;9.10;99.90;;;;;;5008133;28;20222;-84
2021/11/14 10:17:38;;;;;;;24.33;7.57;;;9.10;99.90;;;;;;5006565;28;20678;-87
2021/11/14 10:20:10;;;;;;;127.90;10.88;;;9.00;99.90;;;;;;5005335;28;20219;-83
2021/11/14 10:22:42;;;;;;;9.63;6.18;;;9.00;99.90;;;;;;5006441;28;20231;-84
2021/11/14 10:25:12;;;;;;;25.27;6.85;;;8.90;99.90;;;;;;5004890;28;20224;-84
2021/11/14 10:27:41;;;;;;;6.20;5.68;;;8.90;99.90;;;;;;5004100;28;20224;-86
2021/11/14 10:30:14;;;;;;;72.13;7.97;;;8.80;99.90;;;;;;5003831;28;20694;-86
2021/11/14 10:32:42;;;;;;;192.20;13.30;;;8.80;99.90;;;;;;5007713;28;20228;-85
2021/11/14 10:35:10;;;;;;;91.28;9.60;;;8.80;99.90;;;;;;5004224;28;20231;-84
2021/11/14 10:37:43;;;;;;;162.68;13.18;;;8.70;99.90;;;;;;5004611;28;20224;-85
2021/11/14 10:40:13;;;;;;;7.20;6.60;;;8.70;99.90;;;;;;4976443;28;20224;-83
2021/11/14 10:42:45;;;;;;;6.40;5.85;;;8.70;99.90;;;;;;5004208;28;20725;-85
2021/11/14 10:45:13;;;;;;;5.88;5.38;;;8.80;99.90;;;;;;5003520;28;20239;-85
2021/11/14 10:47:40;;;;;;;5.63;5.22;;;8.80;99.90;;;;;;5005496;28;20764;-85
2021/11/14 10:50:10;;;;;;;6.70;6.13;;;8.80;99.90;;;;;;5003193;28;20705;-81
2021/11/14 10:52:51;;;;;;;6.18;5.72;;;8.90;99.90;;;;;;5004576;28;20240;-85
2021/11/14 10:55:18;;;;;;;7.70;7.10;;;8.90;99.90;;;;;;5005463;28;20256;-86
2021/11/14 10:57:46;;;;;;;6.80;6.30;;;8.90;99.90;;;;;;5010009;28;20226;-82
2021/11/14 11:00:14;;;;;;;6.65;6.15;;;8.90;99.90;;;;;;5005461;28;20478;-83
2021/11/14 11:02:42;;;;;;;7.30;6.70;;;8.90;99.90;;;;;;5002480;28;20228;-83
2021/11/14 11:05:12;;;;;;;6.80;6.20;;;9.00;99.90;;;;;;4993388;28;20227;-88
2021/11/14 11:07:43;;;;;;;6.90;6.20;;;9.00;99.90;;;;;;5035765;28;20232;-83
2021/11/14 11:10:10;;;;;;;6.30;5.80;;;9.00;99.90;;;;;;4993680;28;20243;-85
2021/11/14 11:12:37;;;;;;;7.15;6.55;;;9.00;99.90;;;;;;5035794;28;20219;-82
2021/11/14 11:15:07;;;;;;;7.32;6.72;;;9.00;99.90;;;;;;5011813;28;20223;-82
2021/11/14 11:17:45;;;;;;;6.10;5.60;;;9.00;99.90;;;;;;4987930;28;20235;-84
2021/11/14 11:20:15;;;;;;;6.28;5.72;;;9.00;99.90;;;;;;5010462;28;20315;-82
2021/11/14 11:22:52;;;;;;;5.97;5.57;;;9.10;99.90;;;;;;5005990;28;20223;-85
2021/11/14 11:25:33;;;;;;;6.38;5.88;;;9.10;99.90;;;;;;5006449;28;20236;-83
2021/11/14 11:28:00;;;;;;;6.22;5.80;;;9.20;99.90;;;;;;5001352;28;20499;-83
2021/11/14 11:30:34;;;;;;;7.10;6.60;;;9.30;99.90;;;;;;5007684;28;20236;-82
2021/11/14 11:33:01;;;;;;;7.20;6.60;;;9.30;99.90;;;;;;5008794;28;20239;-84
2021/11/14 11:35:29;;;;;;;8.10;5.80;;;9.40;99.90;;;;;;5011085;28;20258;-82
2021/11/14 11:37:58;;;;;;;7.20;6.60;;;9.50;99.90;;;;;;5007547;28;20227;-83
2021/11/14 11:40:26;;;;;;;6.80;6.30;;;9.50;99.90;;;;;;5006863;28;20814;-83
2021/11/14 11:42:54;;;;;;;6.78;6.18;;;9.50;99.90;;;;;;5008313;28;20222;-86
2021/11/14 11:45:30;;;;;;;6.78;6.18;;;9.40;99.90;;;;;;5005101;28;20720;-85
2021/11/14 11:47:59;;;;;;;7.22;6.63;;;9.40;99.90;;;;;;5013439;28;20226;-84
2021/11/14 11:50:28;;;;;;;9.80;6.85;;;9.40;99.90;;;;;;5011551;28;20224;-84
2021/11/14 11:52:57;;;;;;;6.93;6.32;;;9.40;99.90;;;;;;5012512;28;20594;-84
2021/11/14 11:55:26;;;;;;;6.32;5.72;;;9.50;99.90;;;;;;5010138;28;20232;-82
2021/11/14 11:57:55;;;;;;;7.53;6.85;;;9.50;99.90;;;;;;5011590;28;20216;-81
2021/11/14 12:00:25;;;;;;;7.10;6.40;;;9.40;99.90;;;;;;5010360;28;20231;-86
2021/11/14 12:02:52;;;;;;;6.70;5.55;;;9.40;99.90;;;;;;5012904;28;20230;-87
2021/11/14 12:05:20;;;;;;;6.28;5.78;;;9.30;99.90;;;;;;5005736;28;20230;-82
2021/11/14 12:07:50;;;;;;;7.90;6.03;;;9.40;99.90;;;;;;5016506;28;20232;-82
2021/11/14 12:10:21;;;;;;;18.02;6.82;;;9.50;99.90;;;;;;5014564;28;20223;-82
2021/11/14 12:12:57;;;;;;;19.80;6.03;;;9.40;99.90;;;;;;5015632;28;20491;-81
2021/11/14 12:15:26;;;;;;;9.13;6.10;;;9.40;99.90;;;;;;5012383;28;20222;-81
2021/11/14 12:17:56;;;;;;;6.68;5.97;;;9.30;99.90;;;;;;5012361;28;20231;-82
2021/11/14 12:20:29;;;;;;;6.85;5.20;;;9.20;99.90;;;;;;5002801;28;20336;-87
2021/11/14 12:22:59;;;;;;;5.40;4.85;;;9.20;99.90;;;;;;5019305;28;20232;-84
2021/11/14 12:25:36;;;;;;;5.55;5.15;;;9.20;99.90;;;;;;5009990;28;20253;-82
2021/11/14 12:28:07;;;;;;;5.60;5.13;;;9.20;99.90;;;;;;5006236;28;20694;-82
2021/11/14 12:30:37;;;;;;;43.13;7.95;;;9.20;99.90;;;;;;4988995;28;20231;-82
2021/11/14 12:33:07;;;;;;;5.90;5.40;;;9.10;99.90;;;;;;5033262;28;20220;-82
2021/11/14 12:35:44;;;;;;;6.75;6.03;;;9.10;99.90;;;;;;5017661;28;20220;-83
2021/11/14 12:38:15;;;;;;;6.63;6.07;;;9.10;99.90;;;;;;5008734;28;20234;-83
2021/11/14 12:40:46;;;;;;;6.80;6.20;;;9.10;99.90;;;;;;5011196;28;20218;-83
2021/11/14 12:43:16;;;;;;;6.32;5.82;;;9.20;99.90;;;;;;5019163;28;20231;-81
2021/11/14 12:45:53;;;;;;;6.57;6.05;;;9.20;99.90;;;;;;5013851;28;20224;-82
2021/11/14 12:48:23;;;;;;;6.28;5.78;;;9.20;99.90;;;;;;5012073;28;20250;-81
2021/11/14 12:51:02;;;;;;;6.85;5.80;;;9.20;99.90;;;;;;5014837;28;20273;-82
2021/11/14 12:53:29;;;;;;;7.65;6.97;;;9.30;99.90;;;;;;5014072;28;20753;-83
2021/11/14 12:55:58;;;;;;;7.00;6.35;;;9.30;99.90;;;;;;4991914;28;20228;-84
2021/11/14 12:58:33;;;;;;;6.80;6.20;;;9.30;99.90;;;;;;5035298;28;20235;-79
2021/11/14 13:01:05;;;;;;;6.93;6.32;;;9.30;99.90;;;;;;5011796;28;20227;-82